Time;durP1;ratioP1;P1;durP2;ratioP2;P2;SDS_P1;SDS_P2;PMS_P1;PMS_P2;Temp;Humidity;BMP_temperature;BMP_pressure;BME280_temperature;BME280_humidity;BME280_pressure;Samples;Min_cycle;Max_cycle;Signal;HPM_P1;HPM_P2
2021/05/15 00:00:45;;;;;;;17.38;9.32;;;;;;;7.22;86.58;99910.38;5011694;28;20035;-80
2021/05/15 00:03:10;;;;;;;12.93;8.63;;;;;;;7.21;86.78;99904.25;5030030;28;20038;-80
2021/05/15 00:05:36;;;;;;;14.80;9.88;;;;;;;7.28;86.73;99898.97;5019606;28;20038;-80
2021/05/15 00:08:03;;;;;;;12.82;8.90;;;;;;;7.33;86.86;99903.34;5017143;28;20117;-79
2021/05/15 00:10:30;;;;;;;12.57;9.20;;;;;;;7.33;86.50;99892.84;5016192;28;20034;-80
2021/05/15 00:12:55;;;;;;;19.85;11.85;;;;;;;7.35;86.56;99896.34;5022149;28;20042;-79
2021/05/15 00:15:21;;;;;;;11.98;9.25;;;;;;;7.34;86.92;99897.22;5013863;28;20040;-80
2021/05/15 00:17:46;;;;;;;12.27;9.20;;;;;;;7.36;86.84;99899.81;5038805;28;20100;-80
2021/05/15 00:20:15;;;;;;;9.82;8.13;;;;;;;7.41;87.04;99901.59;5014555;28;20048;-80
2021/05/15 00:22:42;;;;;;;17.15;9.90;;;;;;;7.39;86.62;99899.84;5014556;28;20088;-80
2021/05/15 00:25:09;;;;;;;13.02;9.35;;;;;;;7.33;86.70;99897.22;5012163;28;20069;-80
2021/05/15 00:27:35;;;;;;;10.30;8.07;;;;;;;7.30;86.90;99903.34;5013701;28;20519;-79
2021/05/15 00:30:00;;;;;;;10.45;8.32;;;;;;;7.25;86.35;99892.00;5037043;28;20037;-80
2021/05/15 00:32:26;;;;;;;29.73;10.00;;;;;;;7.16;86.57;99885.03;5022866;28;20037;-79
2021/05/15 00:34:51;;;;;;;91.55;15.50;;;;;;;7.11;86.63;99885.91;5038759;28;20042;-80
2021/05/15 00:37:17;;;;;;;9.52;8.00;;;;;;;6.98;86.45;99888.56;5010643;28;20068;-80
2021/05/15 00:39:43;;;;;;;9.73;7.63;;;;;;;6.89;87.10;99883.34;5016894;28;20135;-79
2021/05/15 00:42:08;;;;;;;7.65;6.57;;;;;;;6.88;87.10;99889.44;5018744;28;20048;-79
2021/05/15 00:44:46;;;;;;;13.43;10.80;;;;;;;6.82;86.92;99897.34;5040517;28;20034;-79
2021/05/15 00:47:13;;;;;;;9.93;8.50;;;;;;;6.70;86.52;99899.97;5017185;28;20039;-80
2021/05/15 00:49:39;;;;;;;9.23;7.38;;;;;;;6.64;87.32;99894.72;5032768;28;20066;-80
2021/05/15 00:52:05;;;;;;;8.65;7.38;;;;;;;6.64;86.38;99894.72;5018231;28;20033;-80
2021/05/15 00:54:31;;;;;;;9.32;7.63;;;;;;;6.62;86.88;99891.22;5036917;28;20034;-80
2021/05/15 00:56:59;;;;;;;8.85;7.50;;;;;;;6.59;87.40;99887.72;5019208;28;20050;-80
2021/05/15 00:59:24;;;;;;;12.23;10.40;;;;;;;6.60;86.81;99888.59;5014363;28;20034;-79
2021/05/15 01:01:49;;;;;;;11.73;9.70;;;;;;;6.59;86.73;99887.72;5017694;28;20492;-80
2021/05/15 01:04:15;;;;;;;9.38;7.93;;;;;;;6.50;86.47;99889.50;5016459;28;20023;-80
2021/05/15 01:06:40;;;;;;;10.15;8.18;;;;;;;6.44;86.34;99881.59;5031834;28;20042;-80
2021/05/15 01:09:06;;;;;;;13.43;11.27;;;;;;;6.35;86.38;99883.34;5022780;28;20034;-80
2021/05/15 01:11:31;;;;;;;9.98;8.00;;;;;;;6.30;86.65;99879.00;5025286;28;20033;-80
2021/05/15 01:13:59;;;;;;;8.80;7.07;;;;;;;6.27;87.16;99879.00;5016434;28;20050;-80
2021/05/15 01:16:25;;;;;;;8.38;6.93;;;;;;;6.28;87.24;99875.47;5041512;28;20110;-80
2021/05/15 01:18:51;;;;;;;7.80;7.00;;;;;;;6.32;87.26;99869.38;5017574;28;20041;-80
2021/05/15 01:21:16;;;;;;;9.00;7.07;;;;;;;6.33;86.89;99869.38;5016303;28;20492;-79
2021/05/15 01:23:41;;;;;;;10.45;7.93;;;;;;;6.33;86.41;99873.75;5015895;28;20030;-80
2021/05/15 01:26:13;;;;;;;9.15;7.25;;;;;;;6.30;86.34;99871.13;5018853;28;20038;-79
2021/05/15 01:28:39;;;;;;;7.30;6.37;;;;;;;6.27;87.10;99873.75;5017523;28;20040;-80
2021/05/15 01:31:05;;;;;;;7.95;5.78;;;;;;;6.20;86.85;99870.22;5014533;28;20041;-79
2021/05/15 01:33:31;;;;;;;9.00;7.43;;;;;;;6.22;86.87;99870.25;5032683;28;20089;-79
2021/05/15 01:35:56;;;;;;;8.75;7.22;;;;;;;6.22;87.10;99871.13;5016798;28;20045;-79
2021/05/15 01:38:22;;;;;;;8.65;7.75;;;;;;;6.23;87.07;99877.22;5019026;28;20471;-79
2021/05/15 01:40:47;;;;;;;9.18;7.38;;;;;;;6.21;87.03;99866.75;5041831;28;20034;-79
2021/05/15 01:43:18;;;;;;;8.27;7.10;;;;;;;6.16;86.88;99863.25;5017212;28;20034;-80
2021/05/15 01:45:43;;;;;;;8.23;7.20;;;;;;;6.12;86.65;99865.00;5017451;28;20034;-80
2021/05/15 01:48:18;;;;;;;6.88;6.13;;;;;;;6.13;86.89;99874.63;5015838;28;20026;-79
2021/05/15 01:50:58;;;;;;;6.82;5.53;;;;;;;6.13;86.78;99872.00;5030414;28;20408;-79
2021/05/15 01:53:27;;;;;;;15.82;8.65;;;;;;;6.12;86.77;99865.00;5016097;28;20034;-80
2021/05/15 01:55:54;;;;;;;11.80;9.27;;;;;;;6.11;87.11;99872.88;5017741;28;20030;-80
2021/05/15 01:58:20;;;;;;;7.68;6.70;;;;;;;6.06;86.87;99862.38;5015964;28;20057;-79
2021/05/15 02:00:46;;;;;;;8.10;6.57;;;;;;;6.05;86.86;99860.63;5030694;28;20077;-79
2021/05/15 02:03:11;;;;;;;6.85;5.57;;;;;;;5.97;87.12;99861.47;5008152;28;20049;-79
2021/05/15 02:05:37;;;;;;;7.15;5.65;;;;;;;5.92;86.57;99872.78;5016449;28;20038;-80
2021/05/15 02:08:03;;;;;;;9.82;5.15;;;;;;;5.92;86.81;99864.94;5015733;28;20122;-79
2021/05/15 02:10:28;;;;;;;8.55;5.97;;;;;;;5.95;86.87;99871.06;5014561;28;20507;-79
2021/05/15 02:12:54;;;;;;;8.77;6.50;;;;;;;5.88;86.48;99870.16;5016853;28;20038;-79
2021/05/15 02:15:19;;;;;;;8.57;6.70;;;;;;;5.84;86.91;99871.91;5031094;28;20030;-79
2021/05/15 02:17:44;;;;;;;7.25;5.50;;;;;;;5.84;86.77;99865.78;5017095;28;20522;-79
2021/05/15 02:20:10;;;;;;;7.60;5.82;;;;;;;5.83;86.37;99867.53;5012700;28;20054;-79
2021/05/15 02:22:35;;;;;;;6.20;5.35;;;;;;;5.83;86.71;99869.28;5016601;28;20046;-79
2021/05/15 02:25:01;;;;;;;11.15;6.03;;;;;;;5.79;86.55;99862.25;5022200;28;20040;-80
2021/05/15 02:27:26;;;;;;;6.03;4.35;;;;;;;5.72;86.26;99870.13;5017387;28;20037;-79
2021/05/15 02:29:51;;;;;;;4.80;3.70;;;;;;;5.66;86.26;99867.50;5014569;28;20026;-80
2021/05/15 02:32:17;;;;;;;14.25;6.22;;;;;;;5.60;86.71;99867.44;5015812;28;20048;-79
2021/05/15 02:34:42;;;;;;;5.45;4.55;;;;;;;5.62;87.30;99862.22;5038671;28;20042;-80
2021/05/15 02:37:08;;;;;;;7.97;6.13;;;;;;;5.64;86.77;99855.25;5017084;28;20038;-80
2021/05/15 02:39:33;;;;;;;7.18;5.35;;;;;;;5.64;86.94;99866.59;5035706;28;20038;-79
2021/05/15 02:41:58;;;;;;;6.82;5.32;;;;;;;5.63;87.24;99859.63;5016402;28;20042;-80
2021/05/15 02:44:24;;;;;;;6.88;5.70;;;;;;;5.67;86.84;99853.50;5013328;28;20034;-79
2021/05/15 02:46:49;;;;;;;7.82;6.78;;;;;;;5.69;86.69;99849.16;5016257;28;20033;-79
2021/05/15 02:49:14;;;;;;;7.38;5.47;;;;;;;5.69;87.42;99851.78;5014225;28;20508;-79
2021/05/15 02:51:39;;;;;;;9.05;7.22;;;;;;;5.74;87.16;99856.13;5012666;28;20516;-80
2021/05/15 02:54:05;;;;;;;8.57;7.25;;;;;;;5.70;86.69;99843.03;5015344;28;20080;-78
2021/05/15 02:56:30;;;;;;;7.95;6.43;;;;;;;5.67;86.59;99836.94;5017208;28;20030;-80
2021/05/15 02:58:56;;;;;;;7.22;6.28;;;;;;;5.64;86.67;99835.19;5016746;28;20042;-79
2021/05/15 03:01:21;;;;;;;7.22;5.95;;;;;;;5.64;86.72;99835.19;5012041;28;20038;-79
2021/05/15 03:03:46;;;;;;;9.10;7.25;;;;;;;5.64;86.50;99835.19;5013614;28;20088;-79
2021/05/15 03:06:12;;;;;;;8.00;6.25;;;;;;;5.63;86.56;99838.69;5014139;28;20038;-80
2021/05/15 03:08:37;;;;;;;11.75;9.30;;;;;;;5.58;86.90;99836.91;5012976;28;20393;-79
2021/05/15 03:11:03;;;;;;;12.07;8.43;;;;;;;5.58;87.06;99834.28;5015371;28;20053;-79
2021/05/15 03:13:28;;;;;;;8.00;6.38;;;;;;;5.51;86.73;99832.53;5033579;28;20038;-79
2021/05/15 03:15:53;;;;;;;8.68;6.90;;;;;;;5.43;86.97;99830.75;5017252;28;20118;-79
2021/05/15 03:18:19;;;;;;;9.25;7.00;;;;;;;5.46;87.59;99829.91;5015195;28;20040;-79
2021/05/15 03:20:44;;;;;;;10.52;7.78;;;;;;;5.47;87.45;99835.13;5015328;28;20025;-79
2021/05/15 03:23:11;;;;;;;9.07;6.95;;;;;;;5.52;87.13;99839.50;5016192;28;20034;-80
2021/05/15 03:25:36;;;;;;;8.98;7.32;;;;;;;5.59;87.54;99847.38;5036760;28;20037;-79
2021/05/15 03:28:02;;;;;;;11.77;7.80;;;;;;;5.57;87.72;99849.13;5016641;28;20036;-79
2021/05/15 03:30:28;;;;;;;9.65;7.63;;;;;;;5.53;87.00;99852.63;5016049;28;20134;-80
2021/05/15 03:32:53;;;;;;;9.18;7.07;;;;;;;5.43;86.95;99856.94;5012429;28;20038;-79
2021/05/15 03:35:19;;;;;;;15.02;7.32;;;;;;;5.41;87.40;99860.41;5037655;28;20033;-80
2021/05/15 03:37:45;;;;;;;94.72;13.88;;;;;;;5.41;87.45;99852.56;5014579;28;20041;-79
2021/05/15 03:40:11;;;;;;;68.90;10.95;;;;;;;5.46;87.42;99851.69;5013312;28;20034;-80
2021/05/15 03:42:37;;;;;;;12.45;9.20;;;;;;;5.46;87.03;99861.31;5014961;28;20495;-79
2021/05/15 03:45:04;;;;;;;9.10;6.68;;;;;;;5.48;86.89;99862.19;5016666;28;20042;-79
2021/05/15 03:47:30;;;;;;;41.67;11.18;;;;;;;5.53;87.23;99862.19;5035539;28;20031;-79
2021/05/15 03:49:55;;;;;;;14.70;7.93;;;;;;;5.56;87.13;99859.59;5015220;28;20049;-79
2021/05/15 03:52:21;;;;;;;53.42;10.10;;;;;;;5.58;86.82;99860.47;5009564;28;20038;-79
2021/05/15 03:54:46;;;;;;;20.90;10.35;;;;;;;5.61;87.69;99855.25;5012061;28;20591;-79
2021/05/15 03:57:11;;;;;;;13.32;10.52;;;;;;;5.66;87.76;99858.78;5014061;28;20068;-79
2021/05/15 03:59:37;;;;;;;15.65;11.32;;;;;;;5.73;88.04;99855.28;5011308;28;20543;-79
2021/05/15 04:02:02;;;;;;;10.07;8.40;;;;;;;5.82;87.64;99854.44;5012169;28;20029;-79
2021/05/15 04:04:28;;;;;;;14.00;10.15;;;;;;;5.93;87.99;99851.00;5013350;28;20041;-80
2021/05/15 04:06:53;;;;;;;12.30;9.77;;;;;;;6.08;87.94;99852.78;5011269;28;20073;-80
2021/05/15 04:09:19;;;;;;;13.18;9.68;;;;;;;6.21;88.36;99852.75;5014503;28;20080;-79
2021/05/15 04:11:44;;;;;;;10.45;8.38;;;;;;;6.28;87.57;99852.75;5012297;28;20098;-79
2021/05/15 04:19:26;;;;;;;9.73;8.32;;;;;;;6.52;87.55;99851.91;5030568;28;20048;-79
2021/05/15 04:21:52;;;;;;;9.45;7.95;;;;;;;6.64;87.45;99847.53;5021526;28;20120;-79
2021/05/15 04:24:17;;;;;;;7.78;6.65;;;;;;;6.68;87.10;99850.16;5027847;28;20065;-79
2021/05/15 04:26:43;;;;;;;7.38;5.78;;;;;;;6.72;86.96;99859.75;5038526;28;20040;-80
2021/05/15 04:29:08;;;;;;;7.30;5.95;;;;;;;6.80;87.01;99854.50;5016348;28;20062;-79
2021/05/15 04:31:33;;;;;;;8.10;6.43;;;;;;;6.86;86.86;99854.47;5028188;28;20534;-79
2021/05/15 04:33:59;;;;;;;9.13;7.95;;;;;;;6.95;87.12;99853.59;5015729;28;20042;-79
2021/05/15 04:36:24;;;;;;;10.45;8.23;;;;;;;7.06;87.09;99861.44;5012998;28;20121;-79
2021/05/15 04:38:52;;;;;;;13.73;9.90;;;;;;;7.20;87.81;99859.63;5012930;28;20046;-80
2021/05/15 04:41:20;;;;;;;9.55;8.18;;;;;;;7.31;87.61;99860.50;5012458;28;20050;-79
2021/05/15 04:43:46;;;;;;;10.80;8.38;;;;;;;7.46;87.17;99863.03;5016009;28;20029;-79
2021/05/15 04:46:12;;;;;;;14.57;8.95;;;;;;;7.60;87.33;99862.13;5013900;28;20404;-79
2021/05/15 04:48:38;;;;;;;10.43;7.95;;;;;;;7.75;87.61;99862.03;5012547;28;20030;-80
2021/05/15 04:51:04;;;;;;;8.48;7.47;;;;;;;7.90;87.24;99859.31;5016189;28;20049;-80
2021/05/15 04:53:30;;;;;;;8.75;6.25;;;;;;;8.06;87.27;99861.84;5013279;28;20034;-79
2021/05/15 04:55:55;;;;;;;8.93;6.80;;;;;;;8.22;87.13;99854.72;5014935;28;20104;-80
2021/05/15 04:58:21;;;;;;;9.20;7.10;;;;;;;8.35;87.00;99857.25;5027991;28;20164;-79
2021/05/15 05:00:50;;;;;;;8.13;7.03;;;;;;;8.49;86.51;99856.31;5014518;28;20042;-79
2021/05/15 05:03:16;;;;;;;8.07;6.55;;;;;;;8.63;86.35;99864.06;5015441;28;20022;-80
2021/05/15 05:05:41;;;;;;;9.38;7.20;;;;;;;8.74;86.08;99867.47;5013632;28;20041;-80
2021/05/15 05:08:07;;;;;;;8.63;6.57;;;;;;;8.87;86.10;99862.97;5030413;28;20042;-80
2021/05/15 05:10:32;;;;;;;8.27;5.30;;;;;;;9.01;85.51;99866.31;5037001;28;20040;-79
2021/05/15 05:13:01;;;;;;;7.53;5.97;;;;;;;9.09;85.04;99872.41;5016358;28;20069;-79
2021/05/15 05:15:26;;;;;;;7.20;4.95;;;;;;;9.26;85.14;99868.72;5013718;28;20038;-79
2021/05/15 05:17:52;;;;;;;6.82;4.75;;;;;;;9.39;84.37;99870.31;5015201;28;20136;-80
2021/05/15 05:20:17;;;;;;;6.20;4.70;;;;;;;9.52;84.31;99871.91;5020008;28;20045;-79
2021/05/15 05:22:42;;;;;;;6.45;4.20;;;;;;;9.62;83.39;99863.00;5035088;28;20038;-80
2021/05/15 05:25:11;;;;;;;6.55;4.20;;;;;;;9.75;83.24;99868.09;5017637;28;20037;-80
2021/05/15 05:27:37;;;;;;;5.03;4.18;;;;;;;9.86;82.50;99868.81;5017279;28;20081;-79
2021/05/15 05:30:02;;;;;;;6.63;4.30;;;;;;;9.96;82.64;99867.81;5019573;28;20046;-80
2021/05/15 05:32:28;;;;;;;6.07;3.53;;;;;;;10.06;81.99;99864.16;5022751;28;20069;-79
2021/05/15 05:34:53;;;;;;;5.50;4.00;;;;;;;10.10;81.39;99857.91;5020887;28;20089;-80
2021/05/15 05:37:18;;;;;;;6.80;4.22;;;;;;;10.21;81.21;99860.38;5015681;28;20038;-79
2021/05/15 05:39:44;;;;;;;5.30;3.53;;;;;;;10.35;80.90;99860.22;5034094;28;20112;-79
2021/05/15 05:42:09;;;;;;;5.38;3.80;;;;;;;10.44;80.81;99865.34;5018385;28;20038;-79
2021/05/15 05:44:34;;;;;;;7.78;3.45;;;;;;;10.57;80.94;99875.69;5016444;28;20439;-80
2021/05/15 05:47:00;;;;;;;4.28;2.80;;;;;;;10.66;80.14;99864.97;5034760;28;20097;-79
2021/05/15 05:49:25;;;;;;;5.15;3.17;;;;;;;10.78;79.46;99870.06;5040000;28;20042;-80
2021/05/15 05:51:50;;;;;;;5.50;3.25;;;;;;;10.89;79.48;99873.34;5021026;28;20034;-80
2021/05/15 05:54:16;;;;;;;4.63;2.50;;;;;;;11.04;79.30;99868.72;5016741;28;20034;-80
2021/05/15 05:56:41;;;;;;;6.28;2.70;;;;;;;11.08;78.75;99878.31;5018581;28;20152;-80
2021/05/15 05:59:06;;;;;;;6.00;2.80;;;;;;;11.22;78.62;99875.44;5019021;28;20042;-79
2021/05/15 06:01:32;;;;;;;4.32;2.70;;;;;;;11.34;78.90;99873.41;5017002;28;20038;-80
2021/05/15 06:03:57;;;;;;;4.95;2.53;;;;;;;11.45;77.45;99867.03;5020721;28;20038;-80
2021/05/15 06:06:22;;;;;;;5.53;2.80;;;;;;;11.55;76.62;99869.47;5018424;28;20040;-79
2021/05/15 06:08:48;;;;;;;3.90;2.30;;;;;;;11.68;76.99;99885.91;5019140;28;20037;-80
2021/05/15 06:11:13;;;;;;;5.07;2.65;;;;;;;11.82;76.25;99875.06;5016365;28;20057;-80
2021/05/15 06:13:38;;;;;;;4.20;2.42;;;;;;;11.97;76.09;99868.59;5018958;28;20038;-80
2021/05/15 06:16:05;;;;;;;5.95;3.13;;;;;;;12.03;75.63;99879.91;5018501;28;20065;-79
2021/05/15 06:18:30;;;;;;;4.47;2.30;;;;;;;12.14;75.30;99874.38;5016400;28;20069;-80
2021/05/15 06:20:56;;;;;;;8.05;2.90;;;;;;;12.31;75.36;99871.31;5018821;28;20034;-80
2021/05/15 06:23:21;;;;;;;4.18;2.05;;;;;;;12.40;73.90;99865.81;5017558;28;20477;-80
2021/05/15 06:25:47;;;;;;;4.47;2.33;;;;;;;12.36;72.32;99858.00;5017002;28;20041;-80
2021/05/15 06:28:13;;;;;;;3.78;1.75;;;;;;;12.47;73.12;99858.59;5019269;28;20052;-80
2021/05/15 06:30:39;;;;;;;3.50;2.15;;;;;;;12.59;73.56;99868.88;5038754;28;20030;-80
2021/05/15 06:33:05;;;;;;;3.10;1.40;;;;;;;12.75;72.19;99863.19;5019972;28;20123;-80
2021/05/15 06:35:32;;;;;;;4.63;2.13;;;;;;;12.84;71.37;99868.28;5032239;28;20058;-80
2021/05/15 06:37:58;;;;;;;3.58;1.60;;;;;;;12.88;70.02;99867.28;5033306;28;20038;-80
2021/05/15 06:40:23;;;;;;;5.13;1.77;;;;;;;12.98;71.36;99862.59;5018012;28;20040;-80
2021/05/15 06:42:48;;;;;;;3.47;1.20;;;;;;;13.06;70.20;99863.25;5015755;28;20026;-80
2021/05/15 06:45:14;;;;;;;3.60;1.55;;;;;;;13.16;70.97;99872.72;5017369;28;20533;-80
2021/05/15 06:47:39;;;;;;;5.25;2.03;;;;;;;13.23;69.48;99874.28;5023194;28;20416;-80
2021/05/15 06:50:06;;;;;;;3.70;1.42;;;;;;;13.38;69.30;99867.69;5015865;28;20026;-80
2021/05/15 06:52:31;;;;;;;3.25;1.58;;;;;;;13.45;69.75;99873.72;5042969;28;20064;-80
2021/05/15 06:54:57;;;;;;;3.22;1.40;;;;;;;13.51;69.06;99861.13;5018763;28;20054;-81
2021/05/15 06:57:22;;;;;;;2.78;1.02;;;;;;;13.64;69.13;99860.78;5018930;28;20098;-80
2021/05/15 06:59:48;;;;;;;2.30;1.10;;;;;;;13.76;68.74;99863.94;5016104;28;20061;-80
2021/05/15 07:02:13;;;;;;;2.78;1.08;;;;;;;13.85;67.84;99851.31;5020485;28;20028;-80
2021/05/15 07:04:39;;;;;;;2.13;0.90;;;;;;;13.92;67.93;99851.09;5019980;28;20481;-80
2021/05/15 07:07:04;;;;;;;3.40;1.00;;;;;;;14.09;68.03;99855.00;5016790;28;20045;-80
2021/05/15 07:09:30;;;;;;;2.55;0.82;;;;;;;14.13;66.19;99852.22;5019238;28;20045;-80
2021/05/15 07:11:55;;;;;;;1.45;0.77;;;;;;;14.21;65.95;99844.88;5016844;28;20069;-80
2021/05/15 07:14:20;;;;;;;2.42;0.98;;;;;;;14.28;65.39;99860.59;5016527;28;20110;-80
2021/05/15 07:16:46;;;;;;;5.53;0.80;;;;;;;14.33;65.04;99854.25;5018726;28;20041;-80
2021/05/15 07:19:12;;;;;;;1.33;0.75;;;;;;;14.34;64.94;99850.66;5004145;28;20516;-80
2021/05/15 07:21:38;;;;;;;1.95;0.80;;;;;;;14.44;64.19;99856.53;5020813;28;20045;-80
2021/05/15 07:24:04;;;;;;;1.63;0.73;;;;;;;14.61;64.42;99850.69;5016137;28;20102;-80
2021/05/15 07:26:29;;;;;;;2.25;0.80;;;;;;;14.74;64.27;99852.00;5018912;28;20046;-80
2021/05/15 07:28:55;;;;;;;2.50;0.70;;;;;;;14.85;65.02;99852.50;5017159;28;20035;-80
2021/05/15 07:31:20;;;;;;;2.15;0.90;;;;;;;15.02;62.70;99853.72;5016340;28;20094;-80
2021/05/15 07:33:45;;;;;;;1.83;0.63;;;;;;;15.07;62.04;99860.59;5019129;28;20042;-80
2021/05/15 07:36:11;;;;;;;2.35;1.00;;;;;;;15.23;62.19;99858.28;5017687;28;20037;-80
2021/05/15 07:38:37;;;;;;;1.80;0.73;;;;;;;15.30;62.14;99856.25;5017627;28;20065;-80
2021/05/15 07:41:03;;;;;;;3.25;0.70;;;;;;;15.47;61.59;99859.16;5031076;28;20065;-80
2021/05/15 07:43:28;;;;;;;1.95;0.80;;;;;;;15.67;60.87;99858.44;5036505;28;20106;-80
2021/05/15 07:45:55;;;;;;;2.45;0.70;;;;;;;15.74;60.63;99857.28;5019460;28;20038;-80
2021/05/15 07:48:29;;;;;;;3.00;1.20;;;;;;;15.86;60.14;99850.63;5015431;28;20465;-80
2021/05/15 07:51:06;;;;;;;2.22;0.93;;;;;;;16.00;60.21;99858.06;5032683;28;20038;-80
2021/05/15 07:53:32;;;;;;;3.55;0.82;;;;;;;16.08;58.50;99853.31;5014330;28;20107;-80
2021/05/15 07:55:57;;;;;;;3.25;1.00;;;;;;;16.22;58.93;99847.47;5016249;28;20120;-80
2021/05/15 07:58:23;;;;;;;2.10;0.85;;;;;;;16.26;58.00;99853.50;5023588;28;20044;-80
2021/05/15 08:00:48;;;;;;;2.50;0.90;;;;;;;16.32;58.13;99850.59;5021448;28;20034;-80
2021/05/15 08:03:13;;;;;;;2.28;1.00;;;;;;;16.40;57.60;99853.81;5015446;28;20041;-80
2021/05/15 08:05:39;;;;;;;2.20;0.90;;;;;;;16.55;57.73;99852.31;5016853;28;20042;-81
2021/05/15 08:08:05;;;;;;;1.40;0.80;;;;;;;16.62;55.90;99854.66;5018298;28;20128;-80
2021/05/15 08:10:32;;;;;;;1.50;0.60;;;;;;;16.54;55.94;99850.59;5015206;28;20057;-80
2021/05/15 08:12:58;;;;;;;1.83;0.77;;;;;;;16.67;55.38;99846.50;5019153;28;20030;-80
2021/05/15 08:15:24;;;;;;;2.22;0.93;;;;;;;16.69;55.06;99843.75;5015188;28;20125;-80
2021/05/15 08:17:50;;;;;;;2.08;1.33;;;;;;;16.61;54.59;99844.94;5018147;28;20037;-80
2021/05/15 08:20:16;;;;;;;2.20;0.88;;;;;;;16.64;55.21;99850.16;5016720;28;20053;-80
2021/05/15 08:22:42;;;;;;;2.63;0.80;;;;;;;16.70;55.26;99842.81;5015144;28;20030;-80
2021/05/15 08:25:09;;;;;;;2.17;0.80;;;;;;;16.90;55.39;99844.66;5041940;28;20037;-80
2021/05/15 08:27:38;;;;;;;2.60;0.90;;;;;;;17.18;55.62;99855.84;5016858;28;20050;-80
2021/05/15 08:30:07;;;;;;;2.40;0.70;;;;;;;17.32;55.87;99839.25;5017963;28;20077;-80
2021/05/15 08:32:33;;;;;;;1.92;0.73;;;;;;;17.49;53.63;99844.69;5021476;28;20503;-80
2021/05/15 08:34:59;;;;;;;1.85;0.80;;;;;;;17.59;52.12;99844.28;5014611;28;20041;-80
2021/05/15 08:37:24;;;;;;;3.65;0.80;;;;;;;17.53;51.48;99832.94;5024155;28;20038;-80
2021/05/15 08:39:50;;;;;;;2.17;0.60;;;;;;;17.66;53.17;99840.38;5033705;28;20038;-80
2021/05/15 08:42:19;;;;;;;2.22;1.00;;;;;;;18.03;53.69;99830.69;5016082;28;20042;-80
2021/05/15 08:44:47;;;;;;;1.92;0.68;;;;;;;18.27;51.77;99832.16;5015732;28;20030;-81
2021/05/15 08:47:15;;;;;;;1.50;0.68;;;;;;;18.32;50.30;99834.59;5015921;28;20045;-80
2021/05/15 08:49:43;;;;;;;2.88;0.85;;;;;;;18.35;49.66;99829.97;5031538;28;20042;-80
2021/05/15 08:52:08;;;;;;;2.15;0.63;;;;;;;18.38;50.84;99835.16;5024377;28;20086;-80
2021/05/15 08:54:35;;;;;;;1.52;0.60;;;;;;;18.74;49.69;99831.56;5035584;28;20109;-80
2021/05/15 08:57:00;;;;;;;1.42;0.50;;;;;;;18.79;48.05;99831.38;5027016;28;20046;-80
2021/05/15 08:59:26;;;;;;;2.75;0.65;;;;;;;18.65;47.65;99828.50;5019439;28;20037;-80
2021/05/15 09:01:52;;;;;;;1.73;0.60;;;;;;;18.86;48.88;99826.56;5036451;28;20033;-80
2021/05/15 09:04:18;;;;;;;1.65;0.60;;;;;;;18.80;48.07;99825.94;5019859;28;20038;-80
2021/05/15 09:06:43;;;;;;;1.83;0.73;;;;;;;18.82;47.67;99826.72;5022746;28;20037;-80
2021/05/15 09:09:09;;;;;;;2.38;0.50;;;;;;;18.76;48.44;99829.72;5018912;28;20037;-80
2021/05/15 09:11:34;;;;;;;1.77;0.50;;;;;;;18.73;48.27;99828.97;5020634;28;20034;-80
2021/05/15 09:14:00;;;;;;;2.30;0.68;;;;;;;18.94;47.14;99830.59;5011614;28;20034;-80
2021/05/15 09:16:26;;;;;;;1.17;0.50;;;;;;;18.97;48.24;99830.44;5016868;28;20046;-80
2021/05/15 09:18:52;;;;;;;1.50;0.52;;;;;;;19.16;48.63;99830.31;5036200;28;20056;-80
2021/05/15 09:21:25;;;;;;;2.20;0.70;;;;;;;19.32;47.43;99825.03;5025808;28;20041;-80
2021/05/15 09:23:51;;;;;;;3.67;0.75;;;;;;;19.39;46.61;99830.94;5027479;28;20038;-80
2021/05/15 09:26:19;;;;;;;2.65;0.73;;;;;;;19.62;46.96;99833.22;5024894;28;20042;-80
2021/05/15 09:28:55;;;;;;;1.52;0.60;;;;;;;19.72;45.53;99830.06;5027643;28;20048;-80
2021/05/15 09:31:37;;;;;;;1.20;0.70;;;;;;;19.87;46.48;99826.53;5020409;28;20038;-81
2021/05/15 09:34:04;;;;;;;;;;;;;;;19.92;45.65;99824.47;5020773;28;20109;-80
2021/05/15 09:36:32;;;;;;;2.28;0.82;;;;;;;19.82;46.92;99825.94;5026410;28;19913;-80
2021/05/15 09:38:58;;;;;;;1.88;0.70;;;;;;;19.65;47.72;99826.84;5018396;28;20106;-80
2021/05/15 09:41:44;;;;;;;1.73;0.70;;;;;;;19.68;45.66;99818.66;5018576;28;20061;-80
2021/05/15 09:44:12;;;;;;;2.58;0.73;;;;;;;19.40;46.97;99817.44;5020761;28;20034;-80
2021/05/15 09:46:40;;;;;;;1.85;0.50;;;;;;;19.26;47.50;99815.53;5026940;28;20484;-80
2021/05/15 09:49:07;;;;;;;1.88;0.77;;;;;;;19.38;46.53;99815.81;5024616;28;20034;-80
2021/05/15 09:51:33;;;;;;;1.70;0.77;;;;;;;19.34;46.15;99806.22;5017881;28;20037;-80
2021/05/15 09:54:17;;;;;;;2.65;0.77;;;;;;;19.53;45.53;99827.50;5020267;28;20074;-80
2021/05/15 09:57:00;;;;;;;1.13;0.57;;;;;;;19.63;45.01;99810.84;5023845;28;20042;-80
2021/05/15 09:59:34;;;;;;;1.67;0.60;;;;;;;19.54;45.56;99803.31;5020061;28;20404;-80
2021/05/15 10:02:06;;;;;;;1.95;0.60;;;;;;;19.51;43.53;99800.81;5018639;28;20101;-80
2021/05/15 10:04:32;;;;;;;1.92;0.77;;;;;;;19.78;44.28;99809.19;5019852;28;20065;-80
2021/05/15 10:06:59;;;;;;;1.77;0.80;;;;;;;19.85;43.98;99809.69;5039662;28;20048;-80
2021/05/15 10:09:35;;;;;;;2.83;0.80;;;;;;;19.92;43.60;99803.03;5018746;28;20033;-80
2021/05/15 10:12:02;;;;;;;2.47;0.90;;;;;;;20.03;44.91;99800.59;5016549;28;20097;-80
2021/05/15 10:14:28;;;;;;;1.88;0.80;;;;;;;20.29;44.18;99800.94;5019035;28;20049;-80
2021/05/15 10:16:54;;;;;;;1.70;0.80;;;;;;;20.43;44.58;99795.63;5019867;28;20069;-80
2021/05/15 10:19:20;;;;;;;1.58;0.80;;;;;;;20.42;43.82;99791.22;5017510;28;20034;-80
2021/05/15 10:21:46;;;;;;;4.60;0.90;;;;;;;20.41;44.47;99788.63;5017799;28;20042;-80
2021/05/15 10:24:26;;;;;;;3.30;1.05;;;;;;;20.74;44.17;99791.16;5019629;28;20041;-80
2021/05/15 10:26:59;;;;;;;2.22;0.80;;;;;;;20.81;42.56;99786.31;5025424;28;20033;-80
2021/05/15 10:29:41;;;;;;;2.50;0.88;;;;;;;20.61;42.84;99782.13;5018123;28;20038;-80
2021/05/15 10:32:22;;;;;;;1.83;0.55;;;;;;;20.48;43.17;99773.91;5016437;28;20073;-80
2021/05/15 10:34:57;;;;;;;3.83;0.98;;;;;;;20.47;44.12;99773.06;5015592;28;20046;-80
2021/05/15 10:37:23;;;;;;;2.13;0.60;;;;;;;20.62;43.04;99776.69;5019042;28;20057;-80
2021/05/15 10:39:49;;;;;;;3.03;0.90;;;;;;;20.30;43.66;99774.06;5020016;28;20113;-80
2021/05/15 10:42:27;;;;;;;2.53;0.70;;;;;;;20.57;43.59;99768.91;5015915;28;20094;-80
2021/05/15 10:44:53;;;;;;;1.52;0.70;;;;;;;20.93;44.84;99764.09;5016378;28;20034;-80
2021/05/15 10:47:21;;;;;;;3.15;0.80;;;;;;;20.66;45.08;99766.63;5035167;28;20053;-80
2021/05/15 10:49:47;;;;;;;1.90;0.80;;;;;;;20.52;44.97;99767.44;5018786;28;20034;-80
2021/05/15 10:52:14;;;;;;;1.15;0.65;;;;;;;20.46;45.63;99766.00;5016501;28;20058;-80
2021/05/15 10:54:50;;;;;;;2.80;0.75;;;;;;;20.61;44.51;99766.03;5035160;28;20069;-80
2021/05/15 10:57:21;;;;;;;2.90;1.30;;;;;;;20.44;43.67;99767.88;5016191;28;20030;-80
2021/05/15 10:59:59;;;;;;;3.22;0.88;;;;;;;20.06;43.42;99762.94;5018054;28;20038;-80
2021/05/15 11:03:00;;;;;;;2.85;0.90;;;;;;;20.16;45.31;99757.06;5019633;28;20570;-80
2021/05/15 11:05:25;;;;;;;2.33;0.68;;;;;;;20.22;43.43;99751.31;5018058;28;20033;-80
2021/05/15 11:07:50;;;;;;;2.20;0.70;;;;;;;20.34;41.81;99747.94;5020424;28;20045;-80
2021/05/15 11:10:19;;;;;;;1.00;0.40;;;;;;;20.31;41.92;99758.84;5017533;28;20097;-80
2021/05/15 11:12:51;;;;;;;1.52;0.60;;;;;;;20.29;41.33;99750.88;5032482;28;20034;-79
2021/05/15 11:15:19;;;;;;;2.60;0.68;;;;;;;20.09;40.68;99746.69;5016303;28;20035;-80
2021/05/15 11:17:58;;;;;;;1.77;0.50;;;;;;;19.89;39.96;99747.84;5010004;28;20038;-80
2021/05/15 11:20:24;;;;;;;1.33;0.40;;;;;;;19.90;40.41;99738.00;5023948;28;20077;-80
2021/05/15 11:22:51;;;;;;;2.35;0.60;;;;;;;19.92;41.96;99736.94;5016581;28;20034;-80
2021/05/15 11:25:17;;;;;;;3.85;0.90;;;;;;;20.07;42.34;99740.56;5026356;28;20026;-80
2021/05/15 11:27:52;;;;;;;1.08;0.38;;;;;;;19.64;40.00;99734.09;5033575;28;20042;-80
2021/05/15 11:30:21;;;;;;;1.30;0.43;;;;;;;19.64;40.14;99742.97;5042369;28;20042;-80
2021/05/15 11:32:59;;;;;;;1.88;0.50;;;;;;;19.74;40.07;99734.47;5017116;28;20037;-80
2021/05/15 11:35:25;;;;;;;1.60;0.50;;;;;;;19.82;40.48;99725.03;5043478;28;20042;-80
2021/05/15 11:37:59;;;;;;;1.92;0.70;;;;;;;20.11;39.32;99715.31;5032950;28;20026;-80
2021/05/15 11:40:25;;;;;;;1.08;0.50;;;;;;;20.31;39.49;99713.28;5042217;28;20052;-80